Terminal Aerodrome Forecast
Issued by NWS

Home | Current Version | Previous Version | Text Only | Print | Product List | Glossary On
Versions: 1 2 3 4 5 6 7 8 9 10 11 12 13 14 15
000
FTUS44 KLIX 300039 AAB
TAFMCB
TAF AMD
KMCB 300039Z 3001/3024 04008KT P6SM VCTS FEW030CB BKN040
      TEMPO 3001/3002 VRB12G21KT 5SM TSRA BKN030CB
     FM300200 VRB03KT P6SM FEW050 SCT250
     FM301500 35006KT P6SM SCT050=

USA.gov is the U.S. government's official web portal to all federal, state and local government web resources and services.